createdAt,value
2018-01-14T00:02:04.763Z,20.77
2018-01-14T00:04:33.054Z,21.73
2018-01-14T00:07:01.556Z,20.87
2018-01-14T00:09:29.799Z,19.70
2018-01-14T00:11:58.083Z,17.00
2018-01-14T00:14:26.389Z,19.87
2018-01-14T00:16:54.922Z,22.05
2018-01-14T00:19:23.215Z,19.95
2018-01-14T00:21:51.810Z,18.52
2018-01-14T00:24:20.077Z,20.08
2018-01-14T00:26:49.546Z,18.58
2018-01-14T00:29:17.823Z,20.75
2018-01-14T00:31:46.124Z,19.00
2018-01-14T00:34:14.568Z,18.80
2018-01-14T00:36:43.036Z,20.30
2018-01-14T00:39:12.264Z,19.85
2018-01-14T00:41:40.564Z,21.13
2018-01-14T00:44:08.831Z,17.73
2018-01-14T00:46:37.159Z,16.93
2018-01-14T00:49:05.457Z,19.20
2018-01-14T00:51:34.084Z,20.70
2018-01-14T00:54:02.406Z,19.93
2018-01-14T00:56:30.761Z,18.13
2018-01-14T00:58:59.027Z,19.75
2018-01-14T01:01:27.279Z,19.50
2018-01-14T01:03:55.575Z,20.30
2018-01-14T01:06:23.848Z,16.10
2018-01-14T01:08:52.153Z,19.37
2018-01-14T01:11:20.492Z,19.90
2018-01-14T01:13:48.770Z,20.40
2018-01-14T01:16:17.042Z,19.60
2018-01-14T01:18:45.377Z,20.90
2018-01-14T01:21:13.903Z,20.10
2018-01-14T01:23:42.298Z,18.15
2018-01-14T01:26:10.538Z,16.92
2018-01-14T01:28:38.861Z,18.30
2018-01-14T01:31:07.205Z,19.60
2018-01-14T01:33:35.453Z,22.50
2018-01-14T01:36:03.823Z,20.20
2018-01-14T01:38:32.112Z,17.50
2018-01-14T01:41:00.419Z,20.90
2018-01-14T01:43:28.703Z,17.40
2018-01-14T01:45:57.101Z,21.30
2018-01-14T01:48:25.345Z,19.13
2018-01-14T01:50:53.643Z,20.70
2018-01-14T01:53:21.911Z,18.95
2018-01-14T01:55:50.203Z,16.87
2018-01-14T01:58:18.495Z,21.73
2018-01-14T02:00:46.790Z,21.97
2018-01-14T02:03:15.254Z,17.63
2018-01-14T02:05:43.532Z,22.77
2018-01-14T02:08:11.890Z,18.25
2018-01-14T02:10:40.165Z,19.92
2018-01-14T02:13:08.455Z,18.12
2018-01-14T02:15:36.777Z,20.33
2018-01-14T02:18:05.089Z,17.17
2018-01-14T02:20:33.374Z,20.50
2018-01-14T02:23:01.687Z,22.10
2018-01-14T02:25:30.663Z,19.17
2018-01-14T02:27:58.958Z,19.98
2018-01-14T02:30:27.219Z,19.20
2018-01-14T02:32:55.519Z,18.53
2018-01-14T02:35:23.842Z,16.85
2018-01-14T02:37:52.120Z,18.93
2018-01-14T02:40:20.381Z,18.75
2018-01-14T02:42:48.679Z,20.80
2018-01-14T02:45:17.291Z,18.65
2018-01-14T02:47:45.538Z,18.63
2018-01-14T02:50:13.864Z,18.35
2018-01-14T02:52:42.150Z,21.43
2018-01-14T02:55:10.483Z,18.33
2018-01-14T02:57:38.751Z,16.97
2018-01-14T03:00:07.073Z,19.87
2018-01-14T03:02:35.378Z,17.90
2018-01-14T03:05:03.683Z,20.70
2018-01-14T03:07:31.955Z,19.40
2018-01-14T03:10:00.247Z,21.13
2018-01-14T03:12:28.521Z,20.77
2018-01-14T03:14:56.816Z,19.07
2018-01-14T03:17:25.103Z,20.75
2018-01-14T03:19:53.447Z,16.97
2018-01-14T03:22:21.719Z,21.23
2018-01-14T03:24:50.008Z,21.33
2018-01-14T03:27:18.296Z,18.33
2018-01-14T03:29:46.577Z,21.03
2018-01-14T03:32:14.887Z,18.73
2018-01-14T03:34:43.156Z,24.50
2018-01-14T03:37:11.461Z,19.92
2018-01-14T03:39:39.767Z,18.43
2018-01-14T03:42:08.059Z,20.20
2018-01-14T03:44:36.334Z,17.95
2018-01-14T03:47:05.334Z,19.77
2018-01-14T03:49:33.611Z,17.57
2018-01-14T03:52:01.912Z,22.23
2018-01-14T03:54:30.202Z,20.33
2018-01-14T03:56:58.539Z,22.40
2018-01-14T03:59:26.878Z,19.40
2018-01-14T04:01:55.162Z,21.20
2018-01-14T04:04:23.454Z,21.50
2018-01-14T04:06:51.730Z,19.73
2018-01-14T04:09:20.031Z,21.42
2018-01-14T04:11:48.309Z,20.10
2018-01-14T04:14:16.610Z,18.97
2018-01-14T04:16:44.900Z,19.83
2018-01-14T04:19:13.208Z,23.10
2018-01-14T04:21:41.466Z,20.50
2018-01-14T04:24:09.789Z,18.03
2018-01-14T04:26:38.062Z,21.23
2018-01-14T04:29:06.366Z,26.07
2018-01-14T04:31:34.672Z,19.30
2018-01-14T04:34:02.999Z,19.10
2018-01-14T04:36:31.279Z,22.10
2018-01-14T04:38:59.564Z,19.53
2018-01-14T04:41:27.850Z,16.77
2018-01-14T04:43:56.180Z,15.85
2018-01-14T04:46:24.458Z,20.00
2018-01-14T04:48:52.718Z,19.60
2018-01-14T04:51:21.031Z,23.03
2018-01-14T04:53:49.303Z,20.92
2018-01-14T04:56:17.611Z,16.85
2018-01-14T04:58:45.888Z,19.33
2018-01-14T05:01:14.184Z,20.02
2018-01-14T05:03:42.753Z,21.40
2018-01-14T05:06:11.060Z,17.63
2018-01-14T05:08:39.328Z,18.40
2018-01-14T05:11:07.639Z,18.52
2018-01-14T05:13:35.934Z,19.73
2018-01-14T05:16:04.232Z,17.97
2018-01-14T05:18:32.510Z,19.57
2018-01-14T05:21:00.783Z,20.33
2018-01-14T05:23:29.073Z,17.62
2018-01-14T05:25:57.346Z,18.57
2018-01-14T05:28:25.657Z,19.20
2018-01-14T05:30:53.957Z,18.63
2018-01-14T05:33:22.263Z,19.30
2018-01-14T05:35:50.547Z,17.17
2018-01-14T05:38:18.834Z,18.33
2018-01-14T05:40:47.113Z,20.50
2018-01-14T05:43:15.435Z,19.52
2018-01-14T05:45:43.719Z,18.60
2018-01-14T05:48:12.343Z,22.30
2018-01-14T05:50:40.623Z,26.00
2018-01-14T05:53:08.934Z,20.27
2018-01-14T05:55:37.467Z,20.63
2018-01-14T05:58:05.748Z,21.40
2018-01-14T06:00:34.636Z,22.57
2018-01-14T06:03:02.929Z,19.37
2018-01-14T06:05:31.221Z,28.13
2018-01-14T06:07:59.540Z,22.17
2018-01-14T06:10:27.846Z,21.27
2018-01-14T06:12:56.128Z,19.20
2018-01-14T06:15:24.428Z,19.12
2018-01-14T06:17:52.690Z,25.00
2018-01-14T06:20:20.986Z,21.33
2018-01-14T06:22:49.262Z,22.80
2018-01-14T06:25:17.592Z,21.67
2018-01-14T06:27:45.855Z,22.77
2018-01-14T06:30:14.168Z,22.23
2018-01-14T06:32:42.431Z,22.10
2018-01-14T06:35:10.743Z,23.60
2018-01-14T06:37:38.998Z,25.77
2018-01-14T06:40:07.276Z,23.23
2018-01-14T06:42:35.638Z,18.03
2018-01-14T06:45:04.958Z,25.12
2018-01-14T06:47:33.237Z,22.80
2018-01-14T06:50:01.509Z,24.42
2018-01-14T06:52:29.815Z,32.97
2018-01-14T06:54:58.100Z,25.67
2018-01-14T06:57:26.407Z,25.90
2018-01-14T06:59:54.687Z,26.17
2018-01-14T07:02:23.067Z,23.00
2018-01-14T07:04:51.377Z,22.37
2018-01-14T07:07:19.655Z,23.53
2018-01-14T07:09:47.944Z,20.30
2018-01-14T07:12:16.215Z,24.60
2018-01-14T07:14:44.531Z,23.00
2018-01-14T07:17:12.836Z,24.35
2018-01-14T07:19:41.156Z,22.00
2018-01-14T07:22:09.430Z,20.80
2018-01-14T07:24:37.782Z,23.37
2018-01-14T07:27:06.057Z,26.70
2018-01-14T07:29:34.790Z,23.47
2018-01-14T07:32:03.068Z,23.00
2018-01-14T07:34:31.548Z,24.73
2018-01-14T07:36:59.867Z,23.30
2018-01-14T07:39:28.145Z,25.30
2018-01-14T07:41:56.462Z,24.23
2018-01-14T07:44:24.763Z,26.30
2018-01-14T07:46:53.084Z,21.63
2018-01-14T07:49:21.385Z,22.93
2018-01-14T07:51:49.725Z,26.60
2018-01-14T07:54:18.016Z,22.67
2018-01-14T07:56:46.320Z,24.20
2018-01-14T07:59:14.614Z,23.83
2018-01-14T08:01:42.948Z,21.30
2018-01-14T08:04:11.254Z,24.23
2018-01-14T08:06:39.525Z,27.17
2018-01-14T08:09:07.824Z,23.70
2018-01-14T08:11:36.113Z,27.37
2018-01-14T08:14:04.716Z,24.83
2018-01-14T08:16:33.047Z,24.30
2018-01-14T08:19:01.347Z,29.65
2018-01-14T08:21:29.616Z,22.67
2018-01-14T08:23:57.927Z,27.30
2018-01-14T08:26:26.506Z,25.20
2018-01-14T08:28:54.812Z,27.47
2018-01-14T08:31:23.077Z,26.35
2018-01-14T08:33:51.398Z,26.70
2018-01-14T08:36:19.684Z,24.17
2018-01-14T08:38:47.970Z,25.30
2018-01-14T08:41:16.270Z,27.37
2018-01-14T08:43:44.558Z,25.97
2018-01-14T08:46:12.855Z,24.33
2018-01-14T08:48:41.124Z,25.80
2018-01-14T08:51:09.439Z,22.45
2018-01-14T08:53:37.716Z,25.00
2018-01-14T08:56:06.009Z,23.77
2018-01-14T08:58:34.307Z,26.20
2018-01-14T09:01:02.651Z,24.70
2018-01-14T09:03:30.888Z,25.23
2018-01-14T09:05:59.151Z,23.97
2018-01-14T09:08:27.431Z,24.00
2018-01-14T09:10:55.696Z,23.53
2018-01-14T09:13:24.008Z,26.30
2018-01-14T09:15:52.290Z,25.77
2018-01-14T09:18:20.613Z,23.93
2018-01-14T09:20:48.919Z,24.97
2018-01-14T09:23:17.276Z,30.67
2018-01-14T09:25:45.551Z,23.30
2018-01-14T09:28:14.188Z,23.63
2018-01-14T09:31:08.244Z,22.70
2018-01-14T09:33:36.554Z,25.17
2018-01-14T09:36:05.252Z,24.35
2018-01-14T09:38:33.535Z,25.50
2018-01-14T09:41:02.054Z,26.50
2018-01-14T09:43:31.055Z,22.70
2018-01-14T09:45:59.404Z,26.50
2018-01-14T09:48:27.683Z,25.80
2018-01-14T09:50:55.943Z,22.50
2018-01-14T09:53:24.277Z,23.57
2018-01-14T09:55:53.271Z,22.80
2018-01-14T09:58:21.544Z,23.17
2018-01-14T10:00:49.856Z,22.97
2018-01-14T10:03:18.149Z,20.43
2018-01-14T10:05:46.435Z,22.30
2018-01-14T10:08:14.735Z,24.27
2018-01-14T10:10:43.091Z,22.67
2018-01-14T10:13:11.361Z,22.98
2018-01-14T10:15:39.654Z,20.47
2018-01-14T10:18:07.936Z,21.80
2018-01-14T10:20:36.224Z,21.63
2018-01-14T10:23:05.472Z,17.80
2018-01-14T10:25:33.793Z,20.30
2018-01-14T10:28:02.100Z,20.90
2018-01-14T10:30:30.331Z,19.43
2018-01-14T10:32:58.623Z,18.70
2018-01-14T10:35:26.899Z,18.37
2018-01-14T10:37:55.226Z,16.87
2018-01-14T10:40:23.492Z,18.57
2018-01-14T10:42:51.817Z,20.93
2018-01-14T10:45:20.100Z,18.37
2018-01-14T10:47:48.450Z,19.00
2018-01-14T10:50:16.728Z,18.00
2018-01-14T10:52:45.011Z,20.55
2018-01-14T10:55:14.148Z,19.33
2018-01-14T10:57:42.467Z,16.67
2018-01-14T11:00:10.743Z,19.83
2018-01-14T11:02:39.021Z,19.20
2018-01-14T11:05:07.330Z,18.57
2018-01-14T11:07:35.588Z,17.90
2018-01-14T11:10:03.904Z,17.63
2018-01-14T11:12:32.180Z,19.70
2018-01-14T11:15:01.230Z,17.00
2018-01-14T11:17:29.511Z,19.33
2018-01-14T11:19:57.818Z,20.20
2018-01-14T11:22:26.136Z,19.13
2018-01-14T11:24:54.419Z,19.23
2018-01-14T11:27:22.717Z,17.80
2018-01-14T11:29:51.855Z,18.20
2018-01-14T11:32:20.148Z,19.63
2018-01-14T11:34:48.480Z,21.20
2018-01-14T11:37:16.779Z,22.23
2018-01-14T11:39:45.075Z,18.10
2018-01-14T11:42:13.379Z,16.47
2018-01-14T11:44:41.698Z,19.17
2018-01-14T11:47:09.952Z,18.48
2018-01-14T11:49:38.230Z,21.23
2018-01-14T11:52:06.558Z,17.50
2018-01-14T11:54:34.819Z,19.63
2018-01-14T11:57:03.142Z,17.67
2018-01-14T11:59:31.484Z,17.97
2018-01-14T12:01:59.755Z,16.83
2018-01-14T12:04:28.043Z,31.00
2018-01-14T12:06:56.358Z,16.07
2018-01-14T12:09:24.648Z,17.70
2018-01-14T12:11:52.930Z,15.20
2018-01-14T12:14:21.224Z,17.20
2018-01-14T12:16:49.532Z,16.60
2018-01-14T12:19:17.850Z,17.50
2018-01-14T12:21:46.138Z,17.62
2018-01-14T12:24:14.708Z,20.95
2018-01-14T12:26:43.001Z,18.20
2018-01-14T12:29:11.369Z,19.92
2018-01-14T12:31:40.270Z,17.70
2018-01-14T12:37:11.162Z,18.17
2018-01-14T12:39:40.138Z,17.23
2018-01-14T12:42:08.455Z,19.43
2018-01-14T12:44:36.755Z,14.60
2018-01-14T12:47:05.054Z,17.83
2018-01-14T12:49:33.379Z,21.30
2018-01-14T12:52:01.659Z,17.00
2018-01-14T12:54:29.974Z,17.97
2018-01-14T12:56:58.268Z,16.40
2018-01-14T12:59:26.585Z,16.27
2018-01-14T13:01:54.985Z,16.23
2018-01-14T13:04:23.267Z,13.77
2018-01-14T13:06:51.563Z,17.30
2018-01-14T13:09:19.832Z,16.48
2018-01-14T13:11:48.160Z,17.63
2018-01-14T13:14:16.437Z,16.42
2018-01-14T13:16:44.727Z,17.70
2018-01-14T13:19:13.015Z,15.73
2018-01-14T13:21:41.320Z,16.17
2018-01-14T13:24:09.688Z,17.55
2018-01-14T13:26:37.932Z,14.97
2018-01-14T13:29:06.238Z,15.03
2018-01-14T13:31:34.535Z,15.83
2018-01-14T13:34:02.826Z,15.67
2018-01-14T13:36:31.100Z,19.23
2018-01-14T13:38:59.415Z,17.60
2018-01-14T13:41:28.471Z,22.35
2018-01-14T13:43:56.782Z,17.53
2018-01-14T13:46:25.091Z,15.33
2018-01-14T13:48:53.709Z,14.13
2018-01-14T13:51:21.955Z,14.77
2018-01-14T13:53:50.232Z,19.73
2018-01-14T13:56:18.519Z,15.60
2018-01-14T13:58:46.788Z,17.20
2018-01-14T14:01:15.160Z,14.73
2018-01-14T14:03:43.402Z,14.63
2018-01-14T14:06:11.703Z,13.17
2018-01-14T14:08:39.963Z,17.90
2018-01-14T14:11:08.623Z,15.00
2018-01-14T14:13:37.430Z,18.40
2018-01-14T14:16:09.545Z,13.83
2018-01-14T14:18:38.828Z,14.73
2018-01-14T14:21:07.118Z,12.60
2018-01-14T14:23:35.388Z,15.95
2018-01-14T14:26:04.367Z,17.40
2018-01-14T14:28:32.614Z,13.03
2018-01-14T14:31:01.775Z,13.13
2018-01-14T14:33:30.043Z,12.07
2018-01-14T14:35:58.339Z,12.30
2018-01-14T14:38:26.613Z,16.20
2018-01-14T14:40:54.908Z,13.07
2018-01-14T14:43:23.226Z,12.97
2018-01-14T14:45:51.488Z,13.07
2018-01-14T14:48:19.806Z,14.38
2018-01-14T14:50:48.059Z,21.43
2018-01-14T14:53:16.411Z,14.52
2018-01-14T14:55:44.669Z,15.10
2018-01-14T14:58:13.115Z,16.60
2018-01-14T15:00:41.330Z,15.40
2018-01-14T15:03:09.636Z,15.32
2018-01-14T15:05:37.949Z,18.50
2018-01-14T15:08:06.327Z,16.48
2018-01-14T15:10:34.612Z,13.47
2018-01-14T15:13:02.922Z,17.02
2018-01-14T15:15:31.197Z,13.80
2018-01-14T15:17:59.514Z,13.50
2018-01-14T15:20:27.775Z,13.60
2018-01-14T15:22:56.059Z,14.90
2018-01-14T15:25:24.349Z,11.53
2018-01-14T15:27:52.624Z,11.30
2018-01-14T15:30:20.918Z,12.80
2018-01-14T15:32:49.204Z,13.27
2018-01-14T15:35:17.495Z,12.52
2018-01-14T15:37:45.771Z,13.20
2018-01-14T15:40:14.062Z,15.90
2018-01-14T15:42:42.343Z,12.57
2018-01-14T15:45:10.674Z,13.36
2018-01-14T15:47:38.947Z,12.87
2018-01-14T15:50:07.209Z,13.30
2018-01-14T15:52:35.509Z,14.33
2018-01-14T15:55:03.775Z,10.10
2018-01-14T15:57:32.079Z,13.07
2018-01-14T16:00:00.342Z,10.53
2018-01-14T16:02:28.635Z,13.00
2018-01-14T16:04:56.952Z,11.63
2018-01-14T16:07:26.252Z,15.20
2018-01-14T16:09:54.607Z,12.07
2018-01-14T16:12:22.909Z,11.07
2018-01-14T16:14:51.187Z,10.53
2018-01-14T16:17:19.468Z,11.18
2018-01-14T16:19:47.733Z,14.47
2018-01-14T16:22:16.034Z,12.63
2018-01-14T16:24:44.292Z,13.80
2018-01-14T16:27:12.566Z,12.80
2018-01-14T16:29:40.844Z,12.87
2018-01-14T16:32:09.115Z,14.80
2018-01-14T16:34:37.397Z,9.30
2018-01-14T16:37:05.649Z,9.80
2018-01-14T16:39:33.958Z,13.00
2018-01-14T16:42:02.261Z,12.50
2018-01-14T16:44:30.507Z,12.53
2018-01-14T16:46:58.776Z,13.67
2018-01-14T16:49:27.057Z,12.47
2018-01-14T16:51:55.329Z,13.03
2018-01-14T16:54:23.612Z,11.93
2018-01-14T16:56:51.868Z,13.37
2018-01-14T16:59:20.161Z,14.00
2018-01-14T17:01:48.439Z,21.93
2018-01-14T17:04:16.694Z,15.80
2018-01-14T17:06:45.030Z,13.30
2018-01-14T17:09:13.261Z,16.07
2018-01-14T17:11:41.539Z,15.93
2018-01-14T17:14:09.811Z,16.03
2018-01-14T17:16:38.556Z,14.50
2018-01-14T17:19:06.847Z,12.97
2018-01-14T17:21:35.195Z,12.30
2018-01-14T17:24:03.461Z,13.00
2018-01-14T17:26:31.742Z,13.30
2018-01-14T17:28:59.989Z,15.60
2018-01-14T17:31:28.276Z,14.30
2018-01-14T17:33:56.543Z,15.87
2018-01-14T17:36:24.843Z,15.10
2018-01-14T17:38:53.140Z,13.20
2018-01-14T17:41:21.395Z,20.20
2018-01-14T17:43:49.676Z,20.90
2018-01-14T17:46:17.950Z,15.73
2018-01-14T17:48:46.231Z,17.03
2018-01-14T17:51:14.507Z,17.83
2018-01-14T17:53:42.828Z,17.03
2018-01-14T17:56:11.091Z,16.83
2018-01-14T17:58:39.408Z,14.83
2018-01-14T18:01:07.651Z,14.47
2018-01-14T18:03:35.955Z,12.93
2018-01-14T18:06:04.211Z,11.23
2018-01-14T18:08:32.483Z,10.30
2018-01-14T18:11:00.784Z,12.97
2018-01-14T18:13:29.035Z,11.43
2018-01-14T18:15:57.330Z,11.83
2018-01-14T18:18:25.589Z,11.37
2018-01-14T18:20:53.870Z,8.77
2018-01-14T18:23:22.126Z,9.90
2018-01-14T18:25:50.419Z,10.70
2018-01-14T18:28:18.695Z,11.00
2018-01-14T18:30:46.986Z,14.60
2018-01-14T18:33:15.233Z,18.20
2018-01-14T18:35:43.736Z,12.10
2018-01-14T18:38:12.004Z,13.33
2018-01-14T18:40:40.322Z,12.53
2018-01-14T18:43:08.566Z,10.20
2018-01-14T18:45:48.682Z,10.93
2018-01-14T18:48:16.927Z,10.60
2018-01-14T18:50:45.184Z,11.40
2018-01-14T18:53:13.458Z,10.83
2018-01-14T18:55:41.733Z,11.70
2018-01-14T18:58:10.048Z,14.53
2018-01-14T19:00:38.344Z,15.57
2018-01-14T19:03:06.582Z,11.07
2018-01-14T19:05:34.840Z,11.27
2018-01-14T19:08:03.147Z,11.03
2018-01-14T19:10:31.432Z,11.63
2018-01-14T19:12:59.724Z,11.80
2018-01-14T19:15:27.991Z,13.80
2018-01-14T19:17:56.498Z,14.03
2018-01-14T19:20:24.753Z,14.17
2018-01-14T19:22:53.051Z,13.50
2018-01-14T19:25:21.314Z,13.30
2018-01-14T19:27:49.576Z,15.27
2018-01-14T19:30:17.871Z,11.80
2018-01-14T19:32:46.124Z,10.83
2018-01-14T19:35:14.418Z,12.53
2018-01-14T19:37:42.688Z,18.70
2018-01-14T19:40:10.967Z,16.60
2018-01-14T19:42:39.238Z,15.97
2018-01-14T19:45:07.536Z,15.93
2018-01-14T19:47:35.790Z,18.33
2018-01-14T19:50:04.099Z,16.17
2018-01-14T19:52:32.948Z,17.63
2018-01-14T19:55:01.270Z,13.70
2018-01-14T19:57:30.395Z,11.63
2018-01-14T19:59:59.480Z,12.70
2018-01-14T20:02:27.753Z,12.27
2018-01-14T20:04:56.004Z,11.97
2018-01-14T20:07:24.315Z,12.77
2018-01-14T20:09:53.512Z,10.90
2018-01-14T20:12:21.795Z,10.77
2018-01-14T20:14:50.057Z,12.40
2018-01-14T20:17:18.342Z,10.10
2018-01-14T20:19:46.600Z,13.40
2018-01-14T20:22:14.915Z,12.93
2018-01-14T20:24:43.176Z,12.07
2018-01-14T20:27:11.451Z,14.30
2018-01-14T20:29:39.882Z,10.67
2018-01-14T20:32:08.164Z,10.37
2018-01-14T20:34:35.735Z,12.43
2018-01-14T20:37:03.760Z,10.20
2018-01-14T20:39:32.093Z,12.83
2018-01-14T20:42:00.358Z,11.30
2018-01-14T20:44:28.651Z,9.20
2018-01-14T20:46:56.904Z,11.70
2018-01-14T20:49:25.819Z,10.50
2018-01-14T20:51:54.071Z,12.40
2018-01-14T20:54:22.413Z,10.23
2018-01-14T20:56:50.793Z,12.70
2018-01-14T20:59:19.031Z,9.70
2018-01-14T21:01:47.345Z,11.23
2018-01-14T21:04:15.597Z,11.77
2018-01-14T21:06:43.872Z,10.80
2018-01-14T21:09:12.119Z,9.33
2018-01-14T21:11:40.417Z,12.33
2018-01-14T21:14:08.724Z,9.93
2018-01-14T21:16:36.969Z,13.80
2018-01-14T21:19:05.243Z,11.70
2018-01-14T21:21:33.516Z,11.07
2018-01-14T21:24:01.781Z,11.37
2018-01-14T21:26:30.040Z,11.00
2018-01-14T21:28:58.294Z,9.80
2018-01-14T21:31:26.596Z,12.47
2018-01-14T21:33:54.942Z,12.20
2018-01-14T21:36:23.184Z,13.80
2018-01-14T21:38:51.455Z,10.73
2018-01-14T21:41:19.737Z,12.43
2018-01-14T21:43:48.037Z,9.23
2018-01-14T21:46:16.294Z,12.70
2018-01-14T21:48:44.597Z,10.83
2018-01-14T21:51:12.842Z,12.87
2018-01-14T21:53:41.122Z,9.93
2018-01-14T21:56:09.386Z,11.60
2018-01-14T21:58:37.677Z,10.70
2018-01-14T22:01:05.930Z,13.27
2018-01-14T22:03:34.211Z,10.00
2018-01-14T22:06:02.481Z,9.50
2018-01-14T22:08:30.762Z,9.90
2018-01-14T22:10:59.037Z,10.37
2018-01-14T22:13:27.350Z,9.60
2018-01-14T22:15:55.615Z,10.60
2018-01-14T22:18:23.894Z,12.03
2018-01-14T22:20:52.163Z,11.23
2018-01-14T22:23:20.409Z,12.40
2018-01-14T22:25:48.690Z,10.53
2018-01-14T22:28:16.942Z,11.50
2018-01-14T22:30:45.227Z,32.53
2018-01-14T22:33:13.486Z,13.50
2018-01-14T22:35:41.812Z,10.90
2018-01-14T22:38:10.075Z,9.60
2018-01-14T22:40:38.351Z,10.20
2018-01-14T22:43:06.670Z,9.73
2018-01-14T22:45:34.953Z,11.77
2018-01-14T22:48:03.281Z,11.83
2018-01-14T22:50:32.648Z,10.90
2018-01-14T22:53:01.012Z,12.57
2018-01-14T22:55:29.239Z,13.13
2018-01-14T22:57:57.630Z,13.03
2018-01-14T23:00:25.895Z,15.23
2018-01-14T23:02:54.233Z,10.27
2018-01-14T23:05:22.523Z,11.73
2018-01-14T23:07:50.808Z,13.70
2018-01-14T23:10:19.131Z,15.73
2018-01-14T23:12:47.785Z,16.90
2018-01-14T23:15:16.040Z,17.93
2018-01-14T23:17:44.664Z,18.97
2018-01-14T23:20:12.951Z,22.07
2018-01-14T23:22:41.212Z,18.57
2018-01-14T23:25:09.514Z,14.75
2018-01-14T23:27:38.606Z,12.18
2018-01-14T23:30:06.908Z,10.23
2018-01-14T23:32:35.227Z,13.07
2018-01-14T23:35:03.524Z,13.20
2018-01-14T23:37:31.795Z,14.60
2018-01-14T23:40:00.137Z,13.70
2018-01-14T23:42:28.428Z,13.20
2018-01-14T23:44:56.729Z,14.40
2018-01-14T23:47:24.993Z,11.73
2018-01-14T23:49:53.373Z,11.47
2018-01-14T23:52:21.642Z,13.73
2018-01-14T23:54:49.921Z,15.50
2018-01-14T23:57:18.223Z,15.27
2018-01-14T23:59:46.496Z,10.50
